sensor_id;sensor_type;location;lat;lon;timestamp;P1;durP1;ratioP1;P2;durP2;ratioP2
33313;SDS011;19674;51.814;107.688;2022-08-27T00:01:32;0.00;;;0.00;;
33313;SDS011;19674;51.814;107.688;2022-08-27T00:03:59;0.00;;;0.00;;
33313;SDS011;19674;51.814;107.688;2022-08-27T00:06:25;0.10;;;0.10;;
33313;SDS011;19674;51.814;107.688;2022-08-27T00:08:52;0.00;;;0.00;;
33313;SDS011;19674;51.814;107.688;2022-08-27T00:11:18;0.10;;;0.10;;
33313;SDS011;19674;51.814;107.688;2022-08-27T00:13:46;0.00;;;0.00;;
33313;SDS011;19674;51.814;107.688;2022-08-27T00:16:13;0.10;;;0.10;;
33313;SDS011;19674;51.814;107.688;2022-08-27T00:18:41;0.00;;;0.00;;
33313;SDS011;19674;51.814;107.688;2022-08-27T00:21:09;0.00;;;0.00;;
33313;SDS011;19674;51.814;107.688;2022-08-27T00:23:36;0.10;;;0.10;;
33313;SDS011;19674;51.814;107.688;2022-08-27T00:26:02;0.00;;;0.00;;
33313;SDS011;19674;51.814;107.688;2022-08-27T00:28:31;0.10;;;0.10;;
33313;SDS011;19674;51.814;107.688;2022-08-27T00:30:57;0.10;;;0.10;;
33313;SDS011;19674;51.814;107.688;2022-08-27T00:33:24;0.00;;;0.00;;
33313;SDS011;19674;51.814;107.688;2022-08-27T00:35:51;0.10;;;0.10;;
33313;SDS011;19674;51.814;107.688;2022-08-27T00:38:17;0.10;;;0.10;;
33313;SDS011;19674;51.814;107.688;2022-08-27T00:40:45;0.10;;;0.10;;
33313;SDS011;19674;51.814;107.688;2022-08-27T00:43:12;0.00;;;0.00;;
33313;SDS011;19674;51.814;107.688;2022-08-27T00:45:39;0.00;;;0.00;;
33313;SDS011;19674;51.814;107.688;2022-08-27T00:48:07;0.00;;;0.00;;
33313;SDS011;19674;51.814;107.688;2022-08-27T00:50:37;0.00;;;0.00;;
33313;SDS011;19674;51.814;107.688;2022-08-27T00:53:08;0.10;;;0.10;;
33313;SDS011;19674;51.814;107.688;2022-08-27T00:55:39;0.00;;;0.00;;
33313;SDS011;19674;51.814;107.688;2022-08-27T00:58:22;0.10;;;0.10;;
33313;SDS011;19674;51.814;107.688;2022-08-27T01:00:52;0.08;;;0.08;;
33313;SDS011;19674;51.814;107.688;2022-08-27T01:03:19;0.05;;;0.05;;
33313;SDS011;19674;51.814;107.688;2022-08-27T01:05:46;0.10;;;0.10;;
33313;SDS011;19674;51.814;107.688;2022-08-27T01:08:14;0.10;;;0.10;;
33313;SDS011;19674;51.814;107.688;2022-08-27T01:10:43;0.00;;;0.00;;
33313;SDS011;19674;51.814;107.688;2022-08-27T01:13:11;0.00;;;0.00;;
33313;SDS011;19674;51.814;107.688;2022-08-27T01:15:40;0.10;;;0.10;;
33313;SDS011;19674;51.814;107.688;2022-08-27T01:18:07;0.00;;;0.00;;
33313;SDS011;19674;51.814;107.688;2022-08-27T01:20:41;0.03;;;0.03;;
33313;SDS011;19674;51.814;107.688;2022-08-27T01:23:32;0.05;;;0.05;;
33313;SDS011;19674;51.814;107.688;2022-08-27T01:26:02;0.03;;;0.03;;
33313;SDS011;19674;51.814;107.688;2022-08-27T01:28:30;0.10;;;0.10;;
33313;SDS011;19674;51.814;107.688;2022-08-27T01:30:56;0.00;;;0.00;;
33313;SDS011;19674;51.814;107.688;2022-08-27T01:33:22;0.10;;;0.10;;
33313;SDS011;19674;51.814;107.688;2022-08-27T01:35:49;0.10;;;0.10;;
33313;SDS011;19674;51.814;107.688;2022-08-27T01:38:16;0.00;;;0.00;;
33313;SDS011;19674;51.814;107.688;2022-08-27T01:40:43;0.10;;;0.10;;
33313;SDS011;19674;51.814;107.688;2022-08-27T01:43:09;0.10;;;0.10;;
33313;SDS011;19674;51.814;107.688;2022-08-27T01:45:45;0.10;;;0.10;;
33313;SDS011;19674;51.814;107.688;2022-08-27T01:48:13;0.10;;;0.10;;
33313;SDS011;19674;51.814;107.688;2022-08-27T01:50:40;0.10;;;0.10;;
33313;SDS011;19674;51.814;107.688;2022-08-27T01:53:08;0.10;;;0.10;;
33313;SDS011;19674;51.814;107.688;2022-08-27T01:55:37;0.03;;;0.03;;
33313;SDS011;19674;51.814;107.688;2022-08-27T01:58:04;0.10;;;0.10;;
33313;SDS011;19674;51.814;107.688;2022-08-27T02:00:31;0.10;;;0.10;;
33313;SDS011;19674;51.814;107.688;2022-08-27T02:03:00;0.10;;;0.10;;
33313;SDS011;19674;51.814;107.688;2022-08-27T02:05:27;0.03;;;0.03;;
33313;SDS011;19674;51.814;107.688;2022-08-27T02:07:54;0.10;;;0.10;;
33313;SDS011;19674;51.814;107.688;2022-08-27T02:10:25;0.10;;;0.10;;
33313;SDS011;19674;51.814;107.688;2022-08-27T02:12:55;0.10;;;0.10;;
33313;SDS011;19674;51.814;107.688;2022-08-27T02:15:21;0.10;;;0.10;;
33313;SDS011;19674;51.814;107.688;2022-08-27T02:17:48;0.10;;;0.10;;
33313;SDS011;19674;51.814;107.688;2022-08-27T02:20:15;0.10;;;0.10;;
33313;SDS011;19674;51.814;107.688;2022-08-27T02:22:42;0.10;;;0.10;;
33313;SDS011;19674;51.814;107.688;2022-08-27T02:25:09;0.00;;;0.00;;
33313;SDS011;19674;51.814;107.688;2022-08-27T02:27:41;0.03;;;0.03;;
33313;SDS011;19674;51.814;107.688;2022-08-27T02:30:09;0.10;;;0.10;;
33313;SDS011;19674;51.814;107.688;2022-08-27T02:32:36;0.10;;;0.10;;
33313;SDS011;19674;51.814;107.688;2022-08-27T02:35:02;0.10;;;0.10;;
33313;SDS011;19674;51.814;107.688;2022-08-27T02:37:29;0.10;;;0.10;;
33313;SDS011;19674;51.814;107.688;2022-08-27T02:39:56;0.10;;;0.10;;
33313;SDS011;19674;51.814;107.688;2022-08-27T02:42:23;0.10;;;0.10;;
33313;SDS011;19674;51.814;107.688;2022-08-27T02:44:49;0.10;;;0.10;;
33313;SDS011;19674;51.814;107.688;2022-08-27T02:47:15;0.10;;;0.10;;
33313;SDS011;19674;51.814;107.688;2022-08-27T02:49:42;0.10;;;0.10;;
33313;SDS011;19674;51.814;107.688;2022-08-27T02:52:08;0.10;;;0.10;;
33313;SDS011;19674;51.814;107.688;2022-08-27T02:54:35;0.10;;;0.10;;
33313;SDS011;19674;51.814;107.688;2022-08-27T02:57:03;0.10;;;0.10;;
33313;SDS011;19674;51.814;107.688;2022-08-27T02:59:29;0.10;;;0.10;;
33313;SDS011;19674;51.814;107.688;2022-08-27T03:04:41;0.10;;;0.10;;
33313;SDS011;19674;51.814;107.688;2022-08-27T03:07:08;0.10;;;0.10;;
33313;SDS011;19674;51.814;107.688;2022-08-27T03:09:34;0.10;;;0.10;;
33313;SDS011;19674;51.814;107.688;2022-08-27T03:12:00;0.10;;;0.10;;
33313;SDS011;19674;51.814;107.688;2022-08-27T03:14:27;0.10;;;0.10;;
33313;SDS011;19674;51.814;107.688;2022-08-27T03:16:53;0.10;;;0.10;;
33313;SDS011;19674;51.814;107.688;2022-08-27T03:19:20;0.10;;;0.10;;
33313;SDS011;19674;51.814;107.688;2022-08-27T03:21:46;0.10;;;0.10;;
33313;SDS011;19674;51.814;107.688;2022-08-27T03:24:12;0.10;;;0.10;;
33313;SDS011;19674;51.814;107.688;2022-08-27T03:26:39;0.10;;;0.10;;
33313;SDS011;19674;51.814;107.688;2022-08-27T03:29:05;0.10;;;0.10;;
33313;SDS011;19674;51.814;107.688;2022-08-27T03:31:32;0.10;;;0.10;;
33313;SDS011;19674;51.814;107.688;2022-08-27T03:34:00;0.10;;;0.10;;
33313;SDS011;19674;51.814;107.688;2022-08-27T03:36:30;0.10;;;0.10;;
33313;SDS011;19674;51.814;107.688;2022-08-27T03:38:57;0.10;;;0.10;;
33313;SDS011;19674;51.814;107.688;2022-08-27T03:41:23;0.10;;;0.10;;
33313;SDS011;19674;51.814;107.688;2022-08-27T03:43:50;0.10;;;0.10;;
33313;SDS011;19674;51.814;107.688;2022-08-27T03:46:21;0.10;;;0.10;;
33313;SDS011;19674;51.814;107.688;2022-08-27T03:48:47;0.10;;;0.10;;
33313;SDS011;19674;51.814;107.688;2022-08-27T03:51:13;0.10;;;0.10;;
33313;SDS011;19674;51.814;107.688;2022-08-27T03:53:40;0.10;;;0.10;;
33313;SDS011;19674;51.814;107.688;2022-08-27T03:56:08;0.17;;;0.17;;
33313;SDS011;19674;51.814;107.688;2022-08-27T03:58:34;0.20;;;0.20;;
33313;SDS011;19674;51.814;107.688;2022-08-27T04:01:02;0.10;;;0.10;;
33313;SDS011;19674;51.814;107.688;2022-08-27T04:03:29;0.10;;;0.10;;
33313;SDS011;19674;51.814;107.688;2022-08-27T04:05:56;0.13;;;0.13;;
33313;SDS011;19674;51.814;107.688;2022-08-27T04:08:22;0.10;;;0.10;;
33313;SDS011;19674;51.814;107.688;2022-08-27T04:10:49;0.10;;;0.10;;
33313;SDS011;19674;51.814;107.688;2022-08-27T04:13:16;0.15;;;0.15;;
33313;SDS011;19674;51.814;107.688;2022-08-27T04:15:43;0.10;;;0.10;;
33313;SDS011;19674;51.814;107.688;2022-08-27T04:18:10;0.20;;;0.20;;
33313;SDS011;19674;51.814;107.688;2022-08-27T04:20:38;0.10;;;0.10;;
33313;SDS011;19674;51.814;107.688;2022-08-27T04:23:04;0.10;;;0.10;;
33313;SDS011;19674;51.814;107.688;2022-08-27T04:25:31;0.17;;;0.17;;
33313;SDS011;19674;51.814;107.688;2022-08-27T04:27:57;0.10;;;0.10;;
33313;SDS011;19674;51.814;107.688;2022-08-27T04:30:24;0.10;;;0.10;;
33313;SDS011;19674;51.814;107.688;2022-08-27T04:32:52;0.10;;;0.10;;
33313;SDS011;19674;51.814;107.688;2022-08-27T04:35:19;0.10;;;0.10;;
33313;SDS011;19674;51.814;107.688;2022-08-27T04:37:47;0.10;;;0.10;;
33313;SDS011;19674;51.814;107.688;2022-08-27T04:40:13;0.20;;;0.20;;
33313;SDS011;19674;51.814;107.688;2022-08-27T04:42:39;0.10;;;0.10;;
33313;SDS011;19674;51.814;107.688;2022-08-27T04:45:06;0.20;;;0.20;;
33313;SDS011;19674;51.814;107.688;2022-08-27T04:47:33;0.20;;;0.20;;
33313;SDS011;19674;51.814;107.688;2022-08-27T04:49:59;0.20;;;0.20;;
33313;SDS011;19674;51.814;107.688;2022-08-27T04:52:25;0.10;;;0.10;;
33313;SDS011;19674;51.814;107.688;2022-08-27T04:54:52;0.10;;;0.10;;
33313;SDS011;19674;51.814;107.688;2022-08-27T04:57:18;0.20;;;0.20;;
33313;SDS011;19674;51.814;107.688;2022-08-27T04:59:45;0.20;;;0.20;;
33313;SDS011;19674;51.814;107.688;2022-08-27T05:02:12;0.20;;;0.20;;
33313;SDS011;19674;51.814;107.688;2022-08-27T05:04:39;0.20;;;0.20;;
33313;SDS011;19674;51.814;107.688;2022-08-27T05:07:06;0.20;;;0.20;;
33313;SDS011;19674;51.814;107.688;2022-08-27T05:09:33;0.17;;;0.17;;
33313;SDS011;19674;51.814;107.688;2022-08-27T05:12:00;0.20;;;0.20;;
33313;SDS011;19674;51.814;107.688;2022-08-27T05:14:26;0.13;;;0.13;;
33313;SDS011;19674;51.814;107.688;2022-08-27T05:16:57;0.20;;;0.20;;
33313;SDS011;19674;51.814;107.688;2022-08-27T05:19:24;0.20;;;0.20;;
33313;SDS011;19674;51.814;107.688;2022-08-27T05:21:50;0.20;;;0.20;;
33313;SDS011;19674;51.814;107.688;2022-08-27T05:24:18;0.10;;;0.10;;
33313;SDS011;19674;51.814;107.688;2022-08-27T05:26:44;0.20;;;0.20;;
33313;SDS011;19674;51.814;107.688;2022-08-27T05:29:10;0.20;;;0.20;;
33313;SDS011;19674;51.814;107.688;2022-08-27T05:31:37;0.20;;;0.20;;
33313;SDS011;19674;51.814;107.688;2022-08-27T05:34:03;0.17;;;0.17;;
33313;SDS011;19674;51.814;107.688;2022-08-27T05:36:31;0.20;;;0.20;;
33313;SDS011;19674;51.814;107.688;2022-08-27T05:38:58;0.20;;;0.20;;
33313;SDS011;19674;51.814;107.688;2022-08-27T05:41:26;0.20;;;0.20;;
33313;SDS011;19674;51.814;107.688;2022-08-27T05:43:59;0.20;;;0.20;;
33313;SDS011;19674;51.814;107.688;2022-08-27T05:46:36;0.10;;;0.10;;
33313;SDS011;19674;51.814;107.688;2022-08-27T05:49:03;0.20;;;0.20;;
33313;SDS011;19674;51.814;107.688;2022-08-27T05:51:31;0.20;;;0.20;;
33313;SDS011;19674;51.814;107.688;2022-08-27T05:54:08;0.20;;;0.20;;
33313;SDS011;19674;51.814;107.688;2022-08-27T05:56:43;0.20;;;0.20;;
33313;SDS011;19674;51.814;107.688;2022-08-27T05:59:10;0.20;;;0.20;;
33313;SDS011;19674;51.814;107.688;2022-08-27T06:01:56;0.20;;;0.20;;
33313;SDS011;19674;51.814;107.688;2022-08-27T06:04:23;0.20;;;0.20;;
33313;SDS011;19674;51.814;107.688;2022-08-27T06:06:50;0.20;;;0.20;;
33313;SDS011;19674;51.814;107.688;2022-08-27T06:09:17;0.20;;;0.20;;
33313;SDS011;19674;51.814;107.688;2022-08-27T06:11:45;0.20;;;0.20;;
33313;SDS011;19674;51.814;107.688;2022-08-27T06:14:12;0.20;;;0.20;;
33313;SDS011;19674;51.814;107.688;2022-08-27T06:16:38;0.20;;;0.20;;
33313;SDS011;19674;51.814;107.688;2022-08-27T06:19:05;0.20;;;0.20;;
33313;SDS011;19674;51.814;107.688;2022-08-27T06:21:32;0.20;;;0.20;;
33313;SDS011;19674;51.814;107.688;2022-08-27T06:23:59;0.20;;;0.20;;
33313;SDS011;19674;51.814;107.688;2022-08-27T06:26:25;0.30;;;0.30;;
33313;SDS011;19674;51.814;107.688;2022-08-27T06:28:52;0.30;;;0.30;;
33313;SDS011;19674;51.814;107.688;2022-08-27T06:31:22;0.20;;;0.20;;
33313;SDS011;19674;51.814;107.688;2022-08-27T06:33:53;0.20;;;0.20;;
33313;SDS011;19674;51.814;107.688;2022-08-27T06:36:23;0.20;;;0.20;;
33313;SDS011;19674;51.814;107.688;2022-08-27T06:38:50;0.20;;;0.20;;
33313;SDS011;19674;51.814;107.688;2022-08-27T06:41:17;0.20;;;0.20;;
33313;SDS011;19674;51.814;107.688;2022-08-27T06:43:45;0.20;;;0.20;;
33313;SDS011;19674;51.814;107.688;2022-08-27T06:46:12;0.20;;;0.20;;
33313;SDS011;19674;51.814;107.688;2022-08-27T06:48:40;0.20;;;0.20;;
33313;SDS011;19674;51.814;107.688;2022-08-27T06:51:13;0.20;;;0.20;;
33313;SDS011;19674;51.814;107.688;2022-08-27T06:53:44;0.20;;;0.20;;
33313;SDS011;19674;51.814;107.688;2022-08-27T06:56:14;0.20;;;0.20;;
33313;SDS011;19674;51.814;107.688;2022-08-27T06:58:41;0.20;;;0.20;;
33313;SDS011;19674;51.814;107.688;2022-08-27T07:01:18;0.20;;;0.20;;
33313;SDS011;19674;51.814;107.688;2022-08-27T07:03:46;0.20;;;0.20;;
33313;SDS011;19674;51.814;107.688;2022-08-27T07:06:13;0.20;;;0.20;;
33313;SDS011;19674;51.814;107.688;2022-08-27T07:08:40;0.20;;;0.20;;
33313;SDS011;19674;51.814;107.688;2022-08-27T07:11:07;0.20;;;0.20;;
33313;SDS011;19674;51.814;107.688;2022-08-27T07:13:35;0.20;;;0.20;;
33313;SDS011;19674;51.814;107.688;2022-08-27T07:16:05;0.20;;;0.20;;
33313;SDS011;19674;51.814;107.688;2022-08-27T07:18:33;0.20;;;0.20;;
33313;SDS011;19674;51.814;107.688;2022-08-27T07:21:00;0.30;;;0.30;;
33313;SDS011;19674;51.814;107.688;2022-08-27T07:23:30;0.30;;;0.30;;
33313;SDS011;19674;51.814;107.688;2022-08-27T07:25:58;0.20;;;0.20;;
33313;SDS011;19674;51.814;107.688;2022-08-27T07:28:25;0.10;;;0.10;;
33313;SDS011;19674;51.814;107.688;2022-08-27T07:30:51;0.20;;;0.20;;
33313;SDS011;19674;51.814;107.688;2022-08-27T07:33:17;0.20;;;0.20;;
33313;SDS011;19674;51.814;107.688;2022-08-27T07:38:49;0.20;;;0.20;;
33313;SDS011;19674;51.814;107.688;2022-08-27T07:41:16;0.20;;;0.20;;
33313;SDS011;19674;51.814;107.688;2022-08-27T07:43:43;0.20;;;0.20;;
33313;SDS011;19674;51.814;107.688;2022-08-27T07:46:27;0.20;;;0.20;;
33313;SDS011;19674;51.814;107.688;2022-08-27T07:48:54;0.20;;;0.20;;
33313;SDS011;19674;51.814;107.688;2022-08-27T07:51:22;0.20;;;0.20;;
33313;SDS011;19674;51.814;107.688;2022-08-27T07:53:50;0.20;;;0.20;;
33313;SDS011;19674;51.814;107.688;2022-08-27T07:56:17;0.20;;;0.20;;
33313;SDS011;19674;51.814;107.688;2022-08-27T07:58:43;0.20;;;0.20;;
33313;SDS011;19674;51.814;107.688;2022-08-27T08:01:10;0.20;;;0.20;;
33313;SDS011;19674;51.814;107.688;2022-08-27T08:03:36;0.20;;;0.20;;
33313;SDS011;19674;51.814;107.688;2022-08-27T08:06:13;0.20;;;0.20;;
33313;SDS011;19674;51.814;107.688;2022-08-27T08:08:41;0.17;;;0.17;;
33313;SDS011;19674;51.814;107.688;2022-08-27T08:11:08;0.13;;;0.13;;
33313;SDS011;19674;51.814;107.688;2022-08-27T08:13:35;0.20;;;0.20;;
33313;SDS011;19674;51.814;107.688;2022-08-27T08:16:02;0.20;;;0.20;;
33313;SDS011;19674;51.814;107.688;2022-08-27T08:18:29;0.20;;;0.20;;
33313;SDS011;19674;51.814;107.688;2022-08-27T08:20:59;0.20;;;0.20;;
33313;SDS011;19674;51.814;107.688;2022-08-27T08:23:26;0.10;;;0.10;;
33313;SDS011;19674;51.814;107.688;2022-08-27T08:25:52;0.20;;;0.20;;
33313;SDS011;19674;51.814;107.688;2022-08-27T08:28:19;0.20;;;0.20;;
33313;SDS011;19674;51.814;107.688;2022-08-27T08:30:45;0.10;;;0.10;;
33313;SDS011;19674;51.814;107.688;2022-08-27T08:33:12;0.20;;;0.20;;
33313;SDS011;19674;51.814;107.688;2022-08-27T08:35:38;0.13;;;0.13;;
33313;SDS011;19674;51.814;107.688;2022-08-27T08:38:05;0.13;;;0.13;;
33313;SDS011;19674;51.814;107.688;2022-08-27T08:40:33;0.20;;;0.20;;
33313;SDS011;19674;51.814;107.688;2022-08-27T08:43:12;0.10;;;0.10;;
33313;SDS011;19674;51.814;107.688;2022-08-27T08:45:54;0.10;;;0.10;;
33313;SDS011;19674;51.814;107.688;2022-08-27T08:48:23;0.20;;;0.20;;
33313;SDS011;19674;51.814;107.688;2022-08-27T08:59:27;0.13;;;0.13;;
33313;SDS011;19674;51.814;107.688;2022-08-27T09:01:57;0.20;;;0.20;;
33313;SDS011;19674;51.814;107.688;2022-08-27T09:04:25;0.20;;;0.20;;
33313;SDS011;19674;51.814;107.688;2022-08-27T09:12:26;0.20;;;0.20;;
33313;SDS011;19674;51.814;107.688;2022-08-27T09:15:04;0.10;;;0.10;;
33313;SDS011;19674;51.814;107.688;2022-08-27T09:17:32;0.20;;;0.20;;
33313;SDS011;19674;51.814;107.688;2022-08-27T09:19:59;0.10;;;0.10;;
33313;SDS011;19674;51.814;107.688;2022-08-27T09:22:29;0.20;;;0.20;;
33313;SDS011;19674;51.814;107.688;2022-08-27T09:28:07;0.10;;;0.10;;
33313;SDS011;19674;51.814;107.688;2022-08-27T09:30:58;0.20;;;0.20;;
33313;SDS011;19674;51.814;107.688;2022-08-27T09:33:28;0.20;;;0.20;;
33313;SDS011;19674;51.814;107.688;2022-08-27T09:35:55;0.20;;;0.20;;
33313;SDS011;19674;51.814;107.688;2022-08-27T09:38:27;0.15;;;0.15;;
33313;SDS011;19674;51.814;107.688;2022-08-27T09:40:55;0.10;;;0.10;;
33313;SDS011;19674;51.814;107.688;2022-08-27T09:43:24;0.13;;;0.13;;
33313;SDS011;19674;51.814;107.688;2022-08-27T09:45:53;0.10;;;0.10;;
33313;SDS011;19674;51.814;107.688;2022-08-27T09:48:24;0.20;;;0.20;;
33313;SDS011;19674;51.814;107.688;2022-08-27T09:50:55;0.20;;;0.20;;
33313;SDS011;19674;51.814;107.688;2022-08-27T09:53:27;0.10;;;0.10;;
33313;SDS011;19674;51.814;107.688;2022-08-27T09:56:39;0.20;;;0.20;;
33313;SDS011;19674;51.814;107.688;2022-08-27T09:59:20;0.10;;;0.10;;
33313;SDS011;19674;51.814;107.688;2022-08-27T10:01:49;0.13;;;0.13;;
33313;SDS011;19674;51.814;107.688;2022-08-27T10:04:36;0.10;;;0.10;;
33313;SDS011;19674;51.814;107.688;2022-08-27T10:07:16;0.15;;;0.15;;
33313;SDS011;19674;51.814;107.688;2022-08-27T10:09:46;0.10;;;0.10;;
33313;SDS011;19674;51.814;107.688;2022-08-27T10:15:23;0.10;;;0.10;;
33313;SDS011;19674;51.814;107.688;2022-08-27T10:20:34;0.10;;;0.10;;
33313;SDS011;19674;51.814;107.688;2022-08-27T10:26:03;0.10;;;0.10;;
33313;SDS011;19674;51.814;107.688;2022-08-27T10:34:31;0.10;;;0.10;;
33313;SDS011;19674;51.814;107.688;2022-08-27T10:37:19;0.10;;;0.10;;
33313;SDS011;19674;51.814;107.688;2022-08-27T10:50:48;0.15;;;0.15;;
33313;SDS011;19674;51.814;107.688;2022-08-27T11:01:42;0.10;;;0.10;;
33313;SDS011;19674;51.814;107.688;2022-08-27T11:04:34;0.10;;;0.10;;
33313;SDS011;19674;51.814;107.688;2022-08-27T11:07:06;0.17;;;0.17;;
33313;SDS011;19674;51.814;107.688;2022-08-27T11:12:14;0.10;;;0.10;;
33313;SDS011;19674;51.814;107.688;2022-08-27T11:14:49;0.10;;;0.10;;
33313;SDS011;19674;51.814;107.688;2022-08-27T11:25:47;0.10;;;0.10;;
33313;SDS011;19674;51.814;107.688;2022-08-27T11:28:17;0.10;;;0.10;;
33313;SDS011;19674;51.814;107.688;2022-08-27T11:44:01;0.10;;;0.10;;
33313;SDS011;19674;51.814;107.688;2022-08-27T11:46:28;0.10;;;0.10;;
33313;SDS011;19674;51.814;107.688;2022-08-27T11:49:08;0.10;;;0.10;;
33313;SDS011;19674;51.814;107.688;2022-08-27T11:51:36;0.10;;;0.10;;
33313;SDS011;19674;51.814;107.688;2022-08-27T11:54:20;0.10;;;0.10;;
33313;SDS011;19674;51.814;107.688;2022-08-27T11:56:51;0.20;;;0.20;;
33313;SDS011;19674;51.814;107.688;2022-08-27T11:59:22;0.00;;;0.00;;
33313;SDS011;19674;51.814;107.688;2022-08-27T12:01:55;0.10;;;0.10;;
33313;SDS011;19674;51.814;107.688;2022-08-27T12:07:00;0.10;;;0.10;;
33313;SDS011;19674;51.814;107.688;2022-08-27T12:18:25;0.10;;;0.10;;
33313;SDS011;19674;51.814;107.688;2022-08-27T12:31:44;0.10;;;0.10;;
33313;SDS011;19674;51.814;107.688;2022-08-27T12:34:17;0.10;;;0.10;;
33313;SDS011;19674;51.814;107.688;2022-08-27T12:36:49;0.10;;;0.10;;
33313;SDS011;19674;51.814;107.688;2022-08-27T12:39:17;0.10;;;0.10;;
33313;SDS011;19674;51.814;107.688;2022-08-27T12:41:47;0.10;;;0.10;;
33313;SDS011;19674;51.814;107.688;2022-08-27T12:44:23;0.10;;;0.10;;
33313;SDS011;19674;51.814;107.688;2022-08-27T12:47:08;0.10;;;0.10;;
33313;SDS011;19674;51.814;107.688;2022-08-27T12:49:43;0.10;;;0.10;;
33313;SDS011;19674;51.814;107.688;2022-08-27T12:52:17;0.10;;;0.10;;
33313;SDS011;19674;51.814;107.688;2022-08-27T13:05:19;0.10;;;0.10;;
33313;SDS011;19674;51.814;107.688;2022-08-27T13:07:47;0.10;;;0.10;;
33313;SDS011;19674;51.814;107.688;2022-08-27T13:10:28;0.10;;;0.10;;
33313;SDS011;19674;51.814;107.688;2022-08-27T13:13:03;0.10;;;0.10;;
33313;SDS011;19674;51.814;107.688;2022-08-27T13:15:29;0.10;;;0.10;;
33313;SDS011;19674;51.814;107.688;2022-08-27T13:17:58;0.10;;;0.10;;
33313;SDS011;19674;51.814;107.688;2022-08-27T13:20:24;0.10;;;0.10;;
33313;SDS011;19674;51.814;107.688;2022-08-27T13:22:52;0.10;;;0.10;;
33313;SDS011;19674;51.814;107.688;2022-08-27T13:25:20;0.10;;;0.10;;
33313;SDS011;19674;51.814;107.688;2022-08-27T13:27:57;0.10;;;0.10;;
33313;SDS011;19674;51.814;107.688;2022-08-27T13:30:25;0.10;;;0.10;;
33313;SDS011;19674;51.814;107.688;2022-08-27T13:32:53;0.10;;;0.10;;
33313;SDS011;19674;51.814;107.688;2022-08-27T13:35:20;0.10;;;0.10;;
33313;SDS011;19674;51.814;107.688;2022-08-27T13:37:47;0.10;;;0.10;;
33313;SDS011;19674;51.814;107.688;2022-08-27T13:40:22;0.10;;;0.10;;
33313;SDS011;19674;51.814;107.688;2022-08-27T13:42:55;0.10;;;0.10;;
33313;SDS011;19674;51.814;107.688;2022-08-27T13:45:31;0.00;;;0.00;;
33313;SDS011;19674;51.814;107.688;2022-08-27T13:47:58;0.10;;;0.10;;
33313;SDS011;19674;51.814;107.688;2022-08-27T13:50:26;0.10;;;0.10;;
33313;SDS011;19674;51.814;107.688;2022-08-27T13:53:00;0.10;;;0.10;;
33313;SDS011;19674;51.814;107.688;2022-08-27T13:55:50;0.10;;;0.10;;
33313;SDS011;19674;51.814;107.688;2022-08-27T13:58:24;0.10;;;0.10;;
33313;SDS011;19674;51.814;107.688;2022-08-27T14:00:52;0.10;;;0.10;;
33313;SDS011;19674;51.814;107.688;2022-08-27T14:03:22;0.08;;;0.08;;
33313;SDS011;19674;51.814;107.688;2022-08-27T14:05:51;0.10;;;0.10;;
33313;SDS011;19674;51.814;107.688;2022-08-27T14:08:17;0.00;;;0.00;;
33313;SDS011;19674;51.814;107.688;2022-08-27T14:11:06;0.10;;;0.10;;
33313;SDS011;19674;51.814;107.688;2022-08-27T14:13:39;0.10;;;0.10;;
33313;SDS011;19674;51.814;107.688;2022-08-27T14:19:09;0.10;;;0.10;;
33313;SDS011;19674;51.814;107.688;2022-08-27T14:21:54;0.10;;;0.10;;
33313;SDS011;19674;51.814;107.688;2022-08-27T14:24:22;0.10;;;0.10;;
33313;SDS011;19674;51.814;107.688;2022-08-27T14:26:49;0.10;;;0.10;;
33313;SDS011;19674;51.814;107.688;2022-08-27T14:29:16;0.10;;;0.10;;
33313;SDS011;19674;51.814;107.688;2022-08-27T14:31:43;0.10;;;0.10;;
33313;SDS011;19674;51.814;107.688;2022-08-27T14:34:09;0.10;;;0.10;;
33313;SDS011;19674;51.814;107.688;2022-08-27T14:36:36;0.10;;;0.10;;
33313;SDS011;19674;51.814;107.688;2022-08-27T14:39:04;0.10;;;0.10;;
33313;SDS011;19674;51.814;107.688;2022-08-27T14:41:30;0.10;;;0.10;;
33313;SDS011;19674;51.814;107.688;2022-08-27T14:43:57;0.10;;;0.10;;
33313;SDS011;19674;51.814;107.688;2022-08-27T14:46:27;0.00;;;0.00;;
33313;SDS011;19674;51.814;107.688;2022-08-27T14:48:55;0.10;;;0.10;;
33313;SDS011;19674;51.814;107.688;2022-08-27T14:51:24;0.08;;;0.08;;
33313;SDS011;19674;51.814;107.688;2022-08-27T14:53:52;0.10;;;0.10;;
33313;SDS011;19674;51.814;107.688;2022-08-27T14:56:19;0.10;;;0.10;;
33313;SDS011;19674;51.814;107.688;2022-08-27T14:58:46;0.10;;;0.10;;
33313;SDS011;19674;51.814;107.688;2022-08-27T15:01:12;0.10;;;0.10;;
33313;SDS011;19674;51.814;107.688;2022-08-27T15:03:42;0.10;;;0.10;;
33313;SDS011;19674;51.814;107.688;2022-08-27T15:06:11;0.10;;;0.10;;
33313;SDS011;19674;51.814;107.688;2022-08-27T15:08:38;0.10;;;0.10;;
33313;SDS011;19674;51.814;107.688;2022-08-27T15:11:15;0.10;;;0.10;;
33313;SDS011;19674;51.814;107.688;2022-08-27T15:13:48;0.10;;;0.10;;
33313;SDS011;19674;51.814;107.688;2022-08-27T15:16:15;0.10;;;0.10;;
33313;SDS011;19674;51.814;107.688;2022-08-27T15:18:51;0.10;;;0.10;;
33313;SDS011;19674;51.814;107.688;2022-08-27T15:21:17;0.10;;;0.10;;
33313;SDS011;19674;51.814;107.688;2022-08-27T15:23:44;0.08;;;0.08;;
33313;SDS011;19674;51.814;107.688;2022-08-27T15:26:12;0.10;;;0.10;;
33313;SDS011;19674;51.814;107.688;2022-08-27T15:28:38;0.10;;;0.10;;
33313;SDS011;19674;51.814;107.688;2022-08-27T15:31:04;0.13;;;0.13;;
33313;SDS011;19674;51.814;107.688;2022-08-27T15:33:30;0.00;;;0.00;;
33313;SDS011;19674;51.814;107.688;2022-08-27T15:35:56;0.00;;;0.00;;
33313;SDS011;19674;51.814;107.688;2022-08-27T15:38:22;0.10;;;0.10;;
33313;SDS011;19674;51.814;107.688;2022-08-27T15:40:48;0.00;;;0.00;;
33313;SDS011;19674;51.814;107.688;2022-08-27T15:43:15;0.10;;;0.10;;
33313;SDS011;19674;51.814;107.688;2022-08-27T15:45:41;0.10;;;0.10;;
33313;SDS011;19674;51.814;107.688;2022-08-27T15:48:07;0.10;;;0.10;;
33313;SDS011;19674;51.814;107.688;2022-08-27T15:50:34;0.10;;;0.10;;
33313;SDS011;19674;51.814;107.688;2022-08-27T15:53:05;0.10;;;0.10;;
33313;SDS011;19674;51.814;107.688;2022-08-27T15:55:33;0.10;;;0.10;;
33313;SDS011;19674;51.814;107.688;2022-08-27T15:58:01;0.00;;;0.00;;
33313;SDS011;19674;51.814;107.688;2022-08-27T16:00:28;0.05;;;0.05;;
33313;SDS011;19674;51.814;107.688;2022-08-27T16:02:56;0.10;;;0.10;;
33313;SDS011;19674;51.814;107.688;2022-08-27T16:05:22;0.00;;;0.00;;
33313;SDS011;19674;51.814;107.688;2022-08-27T16:07:48;0.10;;;0.10;;
33313;SDS011;19674;51.814;107.688;2022-08-27T16:10:14;0.00;;;0.00;;
33313;SDS011;19674;51.814;107.688;2022-08-27T16:12:41;0.10;;;0.10;;
33313;SDS011;19674;51.814;107.688;2022-08-27T16:15:08;0.00;;;0.00;;
33313;SDS011;19674;51.814;107.688;2022-08-27T16:17:35;0.10;;;0.10;;
33313;SDS011;19674;51.814;107.688;2022-08-27T16:20:01;0.10;;;0.10;;
33313;SDS011;19674;51.814;107.688;2022-08-27T16:22:28;0.10;;;0.10;;
33313;SDS011;19674;51.814;107.688;2022-08-27T16:24:54;0.10;;;0.10;;
33313;SDS011;19674;51.814;107.688;2022-08-27T16:27:20;0.08;;;0.08;;
33313;SDS011;19674;51.814;107.688;2022-08-27T16:29:47;0.10;;;0.10;;